Eldorado — PEEA — position and weather

sailwx.info

Track history (hours):
 
Tides and Currents Weather Stations Pressure Air Temp Water Temp Dewpoint Dewpoint Depression Visibility Wind Speed Wind Dir Waves Ship Positions

Eldorado

Last reported at 2017-Jan-18 14:32 UTC. Time now 2017-Jan-18 18:09 UTC.
Position N 18°21' W 064°36'.

Length 38 m; draft 3 m.

Type: Sailing vessel. MMSI: 244670000.

Date/timePositionNaut miles runAvg speedWind from/ knotsBaromVisibWave heightAir tempDewpointWater temp
2017-Jan-18 14:32N 18°21' W 064°36'2 0.1
2017-Jan-17 19:33N 18°23' W 064°37'2 2.1
2017-Jan-17 18:33N 18°21' W 064°36'2 2.5
2017-Jan-17 17:33N 18°24' W 064°36'1 0.3
2017-Jan-17 15:24N 18°24' W 064°37'3 3.2
2017-Jan-17 14:33N 18°21' W 064°36'1 0.7
2017-Jan-17 13:33N 18°22' W 064°36'2 0.1
2017-Jan-16 19:18N 18°24' W 064°37'3 3.7
2017-Jan-16 18:33N 18°21' W 064°36'0 0.0
2017-Jan-16 17:33N 18°21' W 064°36'3 0.1
2017-Jan-15 18:31N 18°24' W 064°36'3 2.8
2017-Jan-15 17:31N 18°21' W 064°36'3 2.7
2017-Jan-15 16:33N 18°24' W 064°36'0 0.4
2017-Jan-15 15:24N 18°24' W 064°36'3 3.1
2017-Jan-15 14:29N 18°21' W 064°36'0 0.1
2017-Jan-15 13:33N 18°21' W 064°36'  
2017-Jan-11 16:07N 18°24' W 064°36'2 3.4
2017-Jan-11 15:33N 18°22' W 064°36'1 1.0
2017-Jan-11 14:32N 18°21' W 064°36'3 3.2
2017-Jan-11 13:33N 18°24' W 064°36'1 0.0
2017-Jan-09 11:33N 18°23' W 064°36'2 1.5
2017-Jan-09 10:21N 18°21' W 064°36'0 0.0
2017-Jan-09 09:33N 18°21' W 064°36'0 0.0
2017-Jan-09 08:31N 18°21' W 064°36'0 0.0
2017-Jan-09 07:21N 18°21' W 064°36'0 0.0
2017-Jan-09 06:29N 18°21' W 064°36'0 0.0
2017-Jan-09 05:33N 18°21' W 064°36'0 0.0
2017-Jan-09 04:33N 18°21' W 064°36'0 0.0
2017-Jan-09 03:31N 18°21' W 064°36'0 0.0
2017-Jan-09 02:30N 18°21' W 064°36'0 0.0
2017-Jan-09 01:28N 18°21' W 064°36'0 0.0
2017-Jan-09 00:28N 18°21' W 064°36'0 0.0
2017-Jan-08 23:16N 18°21' W 064°36'0 0.0
2017-Jan-08 22:31N 18°21' W 064°36'0 0.0
2017-Jan-08 21:30N 18°21' W 064°36'0 0.0
2017-Jan-08 20:31N 18°21' W 064°36'0 0.0
2017-Jan-08 19:28N 18°21' W 064°36'0 0.0
2017-Jan-08 17:28N 18°21' W 064°36'  
Track history (hours):
 
Tides and Currents Weather Stations Pressure Air Temp Water Temp Dewpoint Dewpoint Depression Visibility Wind Speed Wind Dir Waves Ship Positions

Eldorado

Last reported at 2017-Jan-18 14:32 UTC. Time now 2017-Jan-18 18:09 UTC.
Position N 18°21' W 064°36'.

Length 38 m; draft 3 m.

Type: Sailing vessel. MMSI: 244670000.

Date/timePositionNaut miles runAvg speedWind from/ knotsBaromVisibWave heightAir tempDewpointWater temp
2017-Jan-18 14:32N 18°21' W 064°36'2 0.1
2017-Jan-17 19:33N 18°23' W 064°37'2 2.1
2017-Jan-17 18:33N 18°21' W 064°36'2 2.5
2017-Jan-17 17:33N 18°24' W 064°36'1 0.3
2017-Jan-17 15:24N 18°24' W 064°37'3 3.2
2017-Jan-17 14:33N 18°21' W 064°36'1 0.7
2017-Jan-17 13:33N 18°22' W 064°36'2 0.1
2017-Jan-16 19:18N 18°24' W 064°37'3 3.7
2017-Jan-16 18:33N 18°21' W 064°36'0 0.0
2017-Jan-16 17:33N 18°21' W 064°36'3 0.1
2017-Jan-15 18:31N 18°24' W 064°36'3 2.8
2017-Jan-15 17:31N 18°21' W 064°36'3 2.7
2017-Jan-15 16:33N 18°24' W 064°36'0 0.4
2017-Jan-15 15:24N 18°24' W 064°36'3 3.1
2017-Jan-15 14:29N 18°21' W 064°36'0 0.1
2017-Jan-15 13:33N 18°21' W 064°36'  
2017-Jan-11 16:07N 18°24' W 064°36'2 3.4
2017-Jan-11 15:33N 18°22' W 064°36'1 1.0
2017-Jan-11 14:32N 18°21' W 064°36'3 3.2
2017-Jan-11 13:33N 18°24' W 064°36'1 0.0
2017-Jan-09 11:33N 18°23' W 064°36'2 1.5
2017-Jan-09 10:21N 18°21' W 064°36'0 0.0
2017-Jan-09 09:33N 18°21' W 064°36'0 0.0
2017-Jan-09 08:31N 18°21' W 064°36'0 0.0
2017-Jan-09 07:21N 18°21' W 064°36'0 0.0
2017-Jan-09 06:29N 18°21' W 064°36'0 0.0
2017-Jan-09 05:33N 18°21' W 064°36'0 0.0
2017-Jan-09 04:33N 18°21' W 064°36'0 0.0
2017-Jan-09 03:31N 18°21' W 064°36'0 0.0
2017-Jan-09 02:30N 18°21' W 064°36'0 0.0
2017-Jan-09 01:28N 18°21' W 064°36'0 0.0
2017-Jan-09 00:28N 18°21' W 064°36'0 0.0
2017-Jan-08 23:16N 18°21' W 064°36'0 0.0
2017-Jan-08 22:31N 18°21' W 064°36'0 0.0
2017-Jan-08 21:30N 18°21' W 064°36'0 0.0
2017-Jan-08 20:31N 18°21' W 064°36'0 0.0
2017-Jan-08 19:28N 18°21' W 064°36'0 0.0
2017-Jan-08 17:28N 18°21' W 064°36'  

Dump ship's entire track history